createdAt,value
2022-11-26T00:00:25.993Z,99.08
2022-11-26T00:00:57.956Z,99.30
2022-11-26T00:01:29.562Z,99.42
2022-11-26T00:02:15.604Z,99.39
2022-11-26T00:02:48.133Z,99.13
2022-11-26T00:03:20.528Z,99.15
2022-11-26T00:03:53.407Z,98.78
2022-11-26T00:04:25.115Z,98.79
2022-11-26T00:04:58.294Z,99.08
2022-11-26T00:05:31.897Z,99.18
2022-11-26T00:06:03.572Z,98.70
2022-11-26T00:06:41.266Z,98.62
2022-11-26T00:07:14.448Z,99.10
2022-11-26T00:07:54.059Z,99.14
2022-11-26T00:08:35.151Z,98.98
2022-11-26T00:09:18.220Z,98.81
2022-11-26T00:09:50.382Z,98.70
2022-11-26T00:10:28.686Z,98.82
2022-11-26T00:11:01.571Z,98.84
2022-11-26T00:11:33.397Z,98.76
2022-11-26T00:12:21.034Z,99.09
2022-11-26T00:12:53.257Z,98.90
2022-11-26T00:13:27.499Z,98.94
2022-11-26T00:13:59.125Z,99.08
2022-11-26T00:14:31.269Z,98.86
2022-11-26T00:15:16.250Z,99.04
2022-11-26T00:15:49.092Z,99.32
2022-11-26T00:16:20.736Z,99.30
2022-11-26T00:16:52.465Z,99.27
2022-11-26T00:17:24.112Z,99.66
2022-11-26T00:17:56.316Z,99.88
2022-11-26T00:18:27.899Z,99.44
2022-11-26T00:18:59.452Z,99.47
2022-11-26T00:19:30.995Z,99.72
2022-11-26T00:20:02.553Z,99.97
2022-11-26T00:20:34.125Z,99.99
2022-11-26T00:21:11.023Z,99.99
2022-11-26T00:21:42.894Z,99.82
2022-11-26T00:22:23.661Z,99.56
2022-11-26T00:22:58.471Z,99.48
2022-11-26T00:23:30.334Z,99.51
2022-11-26T00:24:03.023Z,99.03
2022-11-26T00:24:34.658Z,98.96
2022-11-26T00:25:07.003Z,99.42
2022-11-26T00:25:48.994Z,99.27
2022-11-26T00:26:23.125Z,99.76
2022-11-26T00:26:56.997Z,99.58
2022-11-26T00:27:28.753Z,99.27
2022-11-26T00:28:00.514Z,99.34
2022-11-26T00:28:34.591Z,99.20
2022-11-26T00:29:09.075Z,99.14
2022-11-26T00:29:40.635Z,99.41
2022-11-26T00:30:20.666Z,99.11
2022-11-26T00:30:53.875Z,99.38
2022-11-26T00:31:25.919Z,99.43
2022-11-26T00:31:57.707Z,99.02
2022-11-26T00:32:30.830Z,99.01
2022-11-26T00:33:02.379Z,99.02
2022-11-26T00:33:34.025Z,98.81
2022-11-26T00:34:05.622Z,98.84
2022-11-26T00:34:37.391Z,98.78
2022-11-26T00:35:09.318Z,98.53
2022-11-26T00:35:41.192Z,98.48
2022-11-26T00:36:25.846Z,98.66
2022-11-26T00:36:57.442Z,98.29
2022-11-26T00:37:37.973Z,98.55
2022-11-26T00:38:16.739Z,98.21
2022-11-26T00:38:53.985Z,98.61
2022-11-26T00:39:25.561Z,99.02
2022-11-26T00:39:57.718Z,99.25
2022-11-26T00:40:33.234Z,99.43
2022-11-26T00:41:05.035Z,99.19
2022-11-26T00:41:38.842Z,99.00
2022-11-26T00:42:11.347Z,98.95
2022-11-26T00:42:42.941Z,98.78
2022-11-26T00:43:16.431Z,98.83
2022-11-26T00:43:48.865Z,98.72
2022-11-26T00:44:23.026Z,99.19
2022-11-26T00:44:55.682Z,99.41
2022-11-26T00:45:29.588Z,99.19
2022-11-26T00:46:01.249Z,99.18
2022-11-26T00:46:32.883Z,99.25
2022-11-26T00:47:04.533Z,99.22
2022-11-26T00:47:36.115Z,99.30
2022-11-26T00:48:07.808Z,99.64
2022-11-26T00:48:39.388Z,99.85
2022-11-26T00:49:10.986Z,99.50
2022-11-26T00:49:42.541Z,99.16
2022-11-26T00:50:19.762Z,99.21
2022-11-26T00:50:51.766Z,99.41
2022-11-26T00:51:25.947Z,99.45
2022-11-26T00:51:57.892Z,99.53
2022-11-26T00:52:34.879Z,99.69
2022-11-26T00:53:07.347Z,99.34
2022-11-26T00:53:39.030Z,99.08
2022-11-26T00:54:14.192Z,99.12
2022-11-26T00:54:45.811Z,99.43
2022-11-26T00:55:39.398Z,99.14
2022-11-26T00:56:21.587Z,99.23
2022-11-26T00:56:53.294Z,99.54
2022-11-26T00:57:25.048Z,99.32
2022-11-26T00:57:57.714Z,99.43
2022-11-26T00:58:30.698Z,99.31
2022-11-26T00:59:02.338Z,99.39
2022-11-26T00:59:33.938Z,99.54
2022-11-26T01:00:15.139Z,99.25
2022-11-26T01:00:46.824Z,99.20
2022-11-26T01:01:21.974Z,99.05
2022-11-26T01:01:53.648Z,98.87
2022-11-26T01:02:25.291Z,98.80
2022-11-26T01:02:57.048Z,98.78
2022-11-26T01:03:29.623Z,98.97
2022-11-26T01:04:01.204Z,98.76
2022-11-26T01:04:33.477Z,98.75
2022-11-26T01:05:05.443Z,98.85
2022-11-26T01:05:37.694Z,99.51
2022-11-26T01:06:33.924Z,99.21
2022-11-26T01:07:05.537Z,99.15
2022-11-26T01:07:37.433Z,99.20
2022-11-26T01:08:29.686Z,99.10
2022-11-26T01:09:01.798Z,99.00
2022-11-26T01:09:33.422Z,99.13
2022-11-26T01:10:05.894Z,99.14
2022-11-26T01:10:37.499Z,99.11
2022-11-26T01:11:14.498Z,98.90
2022-11-26T01:11:50.939Z,98.66
2022-11-26T01:12:25.281Z,98.96
2022-11-26T01:12:57.163Z,98.88
2022-11-26T01:13:29.648Z,99.02
2022-11-26T01:14:01.403Z,99.49
2022-11-26T01:14:33.008Z,99.26
2022-11-26T01:15:05.133Z,99.08
2022-11-26T01:15:36.750Z,98.87
2022-11-26T01:16:34.786Z,99.19
2022-11-26T01:17:11.418Z,99.64
2022-11-26T01:17:43.487Z,99.69
2022-11-26T01:18:18.730Z,99.58
2022-11-26T01:18:52.667Z,99.23
2022-11-26T01:19:24.298Z,99.14
2022-11-26T01:19:55.974Z,99.34
2022-11-26T01:20:30.168Z,99.17
2022-11-26T01:21:01.723Z,99.43
2022-11-26T01:21:33.533Z,99.57
2022-11-26T01:22:05.126Z,99.41
2022-11-26T01:22:36.770Z,99.29
2022-11-26T01:23:14.061Z,98.97
2022-11-26T01:23:46.238Z,99.22
2022-11-26T01:24:17.867Z,99.03
2022-11-26T01:24:49.822Z,99.17
2022-11-26T01:25:22.731Z,99.22
2022-11-26T01:25:54.306Z,99.19
2022-11-26T01:26:28.892Z,99.16
2022-11-26T01:27:00.496Z,98.97
2022-11-26T01:27:32.407Z,99.05
2022-11-26T01:28:04.292Z,99.39
2022-11-26T01:28:35.847Z,99.18
2022-11-26T01:29:07.962Z,98.72
2022-11-26T01:29:39.744Z,98.69
2022-11-26T01:30:31.342Z,98.28
2022-11-26T01:31:02.901Z,98.20
2022-11-26T01:31:34.539Z,98.22
2022-11-26T01:32:06.187Z,97.93
2022-11-26T01:32:37.803Z,97.97
2022-11-26T01:33:09.539Z,98.24
2022-11-26T01:33:41.103Z,98.20
2022-11-26T01:34:12.801Z,98.41
2022-11-26T01:34:44.316Z,98.59
2022-11-26T01:35:17.429Z,98.59
2022-11-26T01:35:49.043Z,98.41
2022-11-26T01:36:23.182Z,98.46
2022-11-26T01:36:54.784Z,98.33
2022-11-26T01:37:26.392Z,98.17
2022-11-26T01:37:58.194Z,98.22
2022-11-26T01:38:29.794Z,97.85
2022-11-26T01:39:19.943Z,98.00
2022-11-26T01:39:51.551Z,97.90
2022-11-26T01:40:50.004Z,97.84
2022-11-26T01:41:47.230Z,97.68
2022-11-26T01:42:32.097Z,97.48
2022-11-26T01:43:11.946Z,97.47
2022-11-26T01:43:44.086Z,97.86
2022-11-26T01:44:26.278Z,97.93
2022-11-26T01:44:57.912Z,97.88
2022-11-26T01:45:29.667Z,97.63
2022-11-26T01:46:01.373Z,97.93
2022-11-26T01:46:36.050Z,98.01
2022-11-26T01:47:25.588Z,98.14
2022-11-26T01:47:57.193Z,98.22
2022-11-26T01:48:33.772Z,98.66
2022-11-26T01:49:17.622Z,99.03
2022-11-26T01:50:26.843Z,99.40
2022-11-26T01:51:07.477Z,99.54
2022-11-26T01:51:39.173Z,99.70
2022-11-26T01:52:23.703Z,99.93
2022-11-26T01:53:19.778Z,99.05
2022-11-26T01:53:57.414Z,98.87
2022-11-26T01:54:29.310Z,98.88
2022-11-26T01:55:00.931Z,98.65
2022-11-26T01:55:38.806Z,98.70
2022-11-26T01:56:36.508Z,98.63
2022-11-26T01:57:10.463Z,98.82
2022-11-26T01:57:42.122Z,99.19
2022-11-26T01:58:19.815Z,99.05
2022-11-26T01:58:56.319Z,99.04
2022-11-26T01:59:36.033Z,99.43
2022-11-26T02:00:08.357Z,99.51
2022-11-26T02:01:20.762Z,99.01
2022-11-26T02:01:56.511Z,98.93
2022-11-26T02:02:29.911Z,98.35
2022-11-26T02:03:03.075Z,98.75
2022-11-26T02:03:42.824Z,98.41
2022-11-26T02:04:18.879Z,98.62
2022-11-26T02:05:00.057Z,98.63
2022-11-26T02:05:38.320Z,98.82
2022-11-26T02:06:16.463Z,98.68
2022-11-26T02:06:49.988Z,98.41
2022-11-26T02:07:21.763Z,98.21
2022-11-26T02:07:54.038Z,98.05
2022-11-26T02:08:27.904Z,97.86
2022-11-26T02:09:01.999Z,97.83
2022-11-26T02:09:33.663Z,97.74
2022-11-26T02:10:05.816Z,97.89
2022-11-26T02:10:37.527Z,97.89
2022-11-26T02:11:22.101Z,97.71
2022-11-26T02:11:54.035Z,97.68
2022-11-26T02:12:25.811Z,97.99
2022-11-26T02:12:57.526Z,97.88
2022-11-26T02:13:29.208Z,98.13
2022-11-26T02:14:17.076Z,98.13
2022-11-26T02:14:48.858Z,98.07
2022-11-26T02:15:22.746Z,98.12
2022-11-26T02:16:10.497Z,98.18
2022-11-26T02:16:44.885Z,98.59
2022-11-26T02:17:25.100Z,98.92
2022-11-26T02:18:04.649Z,99.13
2022-11-26T02:18:39.539Z,99.17
2022-11-26T02:19:45.881Z,99.06
2022-11-26T02:20:31.822Z,99.25
2022-11-26T02:21:24.004Z,99.27
2022-11-26T02:22:34.970Z,99.35
2022-11-26T02:23:09.378Z,99.57
2022-11-26T02:23:59.302Z,99.62
2022-11-26T02:24:47.647Z,99.66
2022-11-26T02:25:21.598Z,99.19
2022-11-26T02:26:12.059Z,99.01
2022-11-26T02:26:58.908Z,98.89
2022-11-26T02:27:49.178Z,98.69
2022-11-26T02:28:46.835Z,99.08
2022-11-26T02:29:40.374Z,98.70
2022-11-26T02:30:14.867Z,98.95
2022-11-26T02:30:50.094Z,98.78
2022-11-26T02:31:51.745Z,99.26
2022-11-26T02:32:32.132Z,99.54
2022-11-26T02:33:15.879Z,99.41
2022-11-26T02:33:56.602Z,99.76
2022-11-26T02:34:54.463Z,99.76
2022-11-26T02:35:45.394Z,99.66
2022-11-26T02:36:34.878Z,99.96
2022-11-26T02:37:13.482Z,99.76
2022-11-26T02:37:55.930Z,99.90
2022-11-26T02:38:30.571Z,99.63
2022-11-26T02:39:16.891Z,99.50
2022-11-26T02:39:48.501Z,99.55
2022-11-26T02:40:20.845Z,99.63
2022-11-26T02:40:53.095Z,99.91
2022-11-26T02:41:24.701Z,99.53
2022-11-26T02:42:02.302Z,99.51
2022-11-26T02:42:35.958Z,99.15
2022-11-26T02:43:07.547Z,99.04
2022-11-26T02:43:39.675Z,99.19
2022-11-26T02:44:11.894Z,99.42
2022-11-26T02:44:45.415Z,99.33
2022-11-26T02:45:24.079Z,99.07
2022-11-26T02:46:01.854Z,99.17
2022-11-26T02:46:33.646Z,99.08
2022-11-26T02:47:11.104Z,98.94
2022-11-26T02:47:46.006Z,99.16
2022-11-26T02:48:27.210Z,99.39
2022-11-26T02:48:58.768Z,99.32
2022-11-26T02:49:33.492Z,99.17
2022-11-26T02:50:16.142Z,99.31
2022-11-26T02:50:52.486Z,99.37
2022-11-26T02:51:30.711Z,99.70
2022-11-26T02:52:06.883Z,99.69
2022-11-26T02:52:41.519Z,99.72
2022-11-26T02:53:15.571Z,99.59
2022-11-26T02:53:49.871Z,99.35
2022-11-26T02:54:23.026Z,99.42
2022-11-26T02:54:55.847Z,99.11
2022-11-26T02:55:34.283Z,99.44
2022-11-26T02:56:09.707Z,99.44
2022-11-26T02:56:41.704Z,99.40
2022-11-26T02:57:15.833Z,99.44
2022-11-26T02:57:50.730Z,99.40
2022-11-26T02:58:22.316Z,99.84
2022-11-26T02:58:55.688Z,99.63
2022-11-26T02:59:27.596Z,99.53
2022-11-26T02:59:59.206Z,99.37
2022-11-26T03:00:34.249Z,99.42
2022-11-26T03:01:16.366Z,99.84
2022-11-26T03:01:55.287Z,99.80
2022-11-26T03:02:31.146Z,99.25
2022-11-26T03:03:10.287Z,99.40
2022-11-26T03:03:50.649Z,99.13
2022-11-26T03:04:27.007Z,98.98
2022-11-26T03:05:01.552Z,98.99
2022-11-26T03:05:36.734Z,99.20
2022-11-26T03:06:11.225Z,99.47
2022-11-26T03:06:43.969Z,99.55
2022-11-26T03:07:16.346Z,99.53
2022-11-26T03:07:51.782Z,99.46
2022-11-26T03:08:25.651Z,99.57
2022-11-26T03:08:57.652Z,99.40
2022-11-26T03:09:42.217Z,99.25
2022-11-26T03:10:13.966Z,99.30
2022-11-26T03:10:45.584Z,99.50
2022-11-26T03:11:17.129Z,99.43
2022-11-26T03:11:49.018Z,99.44
2022-11-26T03:12:21.189Z,99.27
2022-11-26T03:12:52.775Z,99.45
2022-11-26T03:13:24.371Z,99.28
2022-11-26T03:13:55.985Z,99.31
2022-11-26T03:14:27.527Z,99.32
2022-11-26T03:14:59.150Z,99.34
2022-11-26T03:15:30.707Z,99.20
2022-11-26T03:16:02.363Z,99.36
2022-11-26T03:16:34.008Z,99.24
2022-11-26T03:17:05.630Z,99.21
2022-11-26T03:17:37.301Z,99.14
2022-11-26T03:18:08.971Z,98.99
2022-11-26T03:18:40.582Z,99.00
2022-11-26T03:19:12.164Z,98.92
2022-11-26T03:19:44.148Z,98.70
2022-11-26T03:20:16.905Z,98.83
2022-11-26T03:20:52.150Z,98.87
2022-11-26T03:21:24.046Z,98.85
2022-11-26T03:21:55.586Z,98.77
2022-11-26T03:22:27.194Z,98.87
2022-11-26T03:22:58.792Z,99.11
2022-11-26T03:23:30.389Z,99.19
2022-11-26T03:24:02.056Z,99.33
2022-11-26T03:24:33.747Z,99.27
2022-11-26T03:25:05.867Z,99.00
2022-11-26T03:25:37.549Z,99.05
2022-11-26T03:26:09.122Z,99.47
2022-11-26T03:26:40.726Z,99.51
2022-11-26T03:27:12.282Z,99.50
2022-11-26T03:27:43.904Z,99.75
2022-11-26T03:28:15.480Z,99.88
2022-11-26T03:28:47.126Z,99.65
2022-11-26T03:29:18.690Z,99.64
2022-11-26T03:29:50.273Z,99.28
2022-11-26T03:30:22.371Z,99.11
2022-11-26T03:30:53.982Z,99.22
2022-11-26T03:31:25.674Z,99.25
2022-11-26T03:31:58.034Z,99.26
2022-11-26T03:32:29.705Z,99.25
2022-11-26T03:33:01.290Z,99.12
2022-11-26T03:33:32.847Z,98.88
2022-11-26T03:34:04.478Z,99.20
2022-11-26T03:34:36.181Z,99.06
2022-11-26T03:35:08.378Z,99.12
2022-11-26T03:35:39.969Z,99.47
2022-11-26T03:36:11.590Z,99.98
2022-11-26T03:36:43.550Z,99.64
2022-11-26T03:37:15.450Z,99.78
2022-11-26T03:37:47.358Z,99.75
2022-11-26T03:38:18.946Z,99.73
2022-11-26T03:38:50.494Z,99.63
2022-11-26T03:39:22.118Z,99.40
2022-11-26T03:39:53.720Z,99.28
2022-11-26T03:40:25.418Z,99.09
2022-11-26T03:40:58.743Z,98.95
2022-11-26T03:41:30.395Z,99.11
2022-11-26T03:42:01.916Z,98.77
2022-11-26T03:42:33.690Z,98.85
2022-11-26T03:43:05.257Z,98.84
2022-11-26T03:43:37.087Z,98.78
2022-11-26T03:44:08.664Z,98.89
2022-11-26T03:44:40.594Z,98.89
2022-11-26T03:45:12.858Z,98.96
2022-11-26T03:45:44.456Z,99.01
2022-11-26T03:46:16.123Z,99.05
2022-11-26T03:46:47.747Z,99.29
2022-11-26T03:47:19.519Z,99.39
2022-11-26T03:47:51.188Z,99.40
2022-11-26T03:48:22.810Z,99.47
2022-11-26T03:48:54.514Z,99.65
2022-11-26T03:49:26.221Z,99.57
2022-11-26T03:49:58.060Z,99.46
2022-11-26T03:50:29.674Z,99.32
2022-11-26T03:51:01.232Z,99.66
2022-11-26T03:51:33.140Z,99.80
2022-11-26T03:52:04.949Z,99.88
2022-11-26T03:52:36.548Z,99.99
2022-11-26T03:53:08.630Z,99.85
2022-11-26T03:53:40.227Z,99.99
2022-11-26T03:54:11.990Z,99.92
2022-11-26T03:54:43.579Z,99.99
2022-11-26T03:55:15.305Z,99.99
2022-11-26T03:55:47.912Z,99.99
2022-11-26T03:56:19.514Z,99.65
2022-11-26T03:56:51.068Z,99.74
2022-11-26T03:57:22.855Z,99.99
2022-11-26T03:57:54.460Z,99.99
2022-11-26T03:58:26.064Z,99.99
2022-11-26T03:58:57.622Z,99.99
2022-11-26T03:59:29.310Z,99.99
2022-11-26T04:00:01.092Z,99.99
2022-11-26T04:00:32.690Z,99.99
2022-11-26T04:01:09.482Z,99.99
2022-11-26T04:01:41.197Z,99.99
2022-11-26T04:02:12.786Z,99.99
2022-11-26T04:02:44.393Z,99.99
2022-11-26T04:03:16.206Z,99.99
2022-11-26T04:03:47.885Z,99.99
2022-11-26T04:04:19.444Z,99.99
2022-11-26T04:04:51.273Z,99.99
2022-11-26T04:05:22.832Z,99.99
2022-11-26T04:05:54.381Z,99.99
2022-11-26T04:06:25.960Z,99.99
2022-11-26T04:06:57.662Z,99.99
2022-11-26T04:07:29.244Z,99.99
2022-11-26T04:08:00.804Z,99.99
2022-11-26T04:08:32.729Z,99.99
2022-11-26T04:09:04.412Z,99.99
2022-11-26T04:09:35.998Z,99.99
2022-11-26T04:10:08.333Z,99.99
2022-11-26T04:10:40.055Z,99.99
2022-11-26T04:11:11.611Z,99.99
2022-11-26T04:11:43.151Z,99.99
2022-11-26T04:12:14.748Z,99.99
2022-11-26T04:12:46.387Z,99.99
2022-11-26T04:13:18.050Z,99.89
2022-11-26T04:13:49.655Z,99.99
2022-11-26T04:14:21.307Z,99.99
2022-11-26T04:14:52.885Z,99.92
2022-11-26T04:15:24.598Z,99.71
2022-11-26T04:15:56.192Z,99.77
2022-11-26T04:16:27.812Z,99.89
2022-11-26T04:16:59.437Z,99.99
2022-11-26T04:17:31.073Z,99.99
2022-11-26T04:18:02.671Z,99.76
2022-11-26T04:18:34.369Z,99.76
2022-11-26T04:19:06.015Z,99.65
2022-11-26T04:19:37.702Z,99.57
2022-11-26T04:20:09.799Z,99.79
2022-11-26T04:20:42.117Z,99.66
2022-11-26T04:21:13.675Z,99.60
2022-11-26T04:21:45.239Z,99.65
2022-11-26T04:22:16.920Z,99.64
2022-11-26T04:22:48.525Z,99.47
2022-11-26T04:23:20.173Z,99.45
2022-11-26T04:23:51.787Z,99.15
2022-11-26T04:24:23.329Z,99.54
2022-11-26T04:24:55.012Z,99.99
2022-11-26T04:25:26.711Z,99.92
2022-11-26T04:25:58.293Z,99.97
2022-11-26T04:26:29.962Z,99.99
2022-11-26T04:27:01.575Z,99.97
2022-11-26T04:27:33.222Z,99.99
2022-11-26T04:28:05.063Z,99.99
2022-11-26T04:28:36.610Z,99.99
2022-11-26T04:29:08.187Z,99.99
2022-11-26T04:29:39.812Z,99.99
2022-11-26T04:30:11.936Z,99.99
2022-11-26T04:30:44.090Z,99.99
2022-11-26T04:31:15.709Z,99.99
2022-11-26T04:31:48.088Z,99.99
2022-11-26T04:32:19.739Z,99.99
2022-11-26T04:32:51.334Z,99.95
2022-11-26T04:33:23.022Z,99.99
2022-11-26T04:33:54.556Z,99.99
2022-11-26T04:34:26.173Z,99.99
2022-11-26T04:34:57.717Z,99.98
2022-11-26T04:35:29.770Z,99.83
2022-11-26T04:36:01.510Z,99.99
2022-11-26T04:36:33.153Z,99.96
2022-11-26T04:37:04.701Z,99.95
2022-11-26T04:37:36.530Z,99.97
2022-11-26T04:38:08.078Z,99.88
2022-11-26T04:38:39.739Z,99.99
2022-11-26T04:39:12.605Z,99.95
2022-11-26T04:39:44.240Z,99.77
2022-11-26T04:40:15.880Z,99.93
2022-11-26T04:40:48.760Z,99.99
2022-11-26T04:41:20.358Z,99.60
2022-11-26T04:41:52.066Z,99.95
2022-11-26T04:42:23.653Z,99.73
2022-11-26T04:42:55.241Z,99.77
2022-11-26T04:43:26.889Z,99.96
2022-11-26T04:43:58.452Z,99.99
2022-11-26T04:44:30.190Z,99.88
2022-11-26T04:45:01.788Z,99.99
2022-11-26T04:45:33.377Z,99.76
2022-11-26T04:46:05.257Z,99.99
2022-11-26T04:46:36.871Z,99.82
2022-11-26T04:47:08.436Z,99.99
2022-11-26T04:47:42.881Z,99.85
2022-11-26T04:48:14.837Z,99.62
2022-11-26T04:48:46.380Z,99.98
2022-11-26T04:49:17.957Z,99.99
2022-11-26T04:49:49.542Z,99.68
2022-11-26T04:50:21.157Z,99.76
2022-11-26T04:50:52.740Z,99.88
2022-11-26T04:51:24.349Z,99.99
2022-11-26T04:51:55.940Z,99.90
2022-11-26T04:52:27.484Z,99.99
2022-11-26T04:52:59.073Z,99.99
2022-11-26T04:53:30.625Z,99.83
2022-11-26T04:54:03.408Z,99.99
2022-11-26T04:54:36.710Z,99.99
2022-11-26T04:55:09.072Z,99.99
2022-11-26T04:55:40.627Z,99.99
2022-11-26T04:56:12.280Z,99.99
2022-11-26T04:56:43.874Z,99.99
2022-11-26T04:57:15.551Z,99.99
2022-11-26T04:57:49.938Z,99.99
2022-11-26T04:58:21.880Z,99.99
2022-11-26T04:58:53.421Z,99.99
2022-11-26T04:59:24.981Z,99.99
2022-11-26T04:59:56.553Z,99.99
2022-11-26T05:00:28.155Z,99.99
2022-11-26T05:01:00.551Z,99.99
2022-11-26T05:01:32.280Z,99.99
2022-11-26T05:02:03.968Z,99.99
2022-11-26T05:02:35.703Z,99.97
2022-11-26T05:03:07.435Z,99.99
2022-11-26T05:03:39.034Z,99.99
2022-11-26T05:04:10.606Z,99.99
2022-11-26T05:04:42.200Z,99.85
2022-11-26T05:05:13.903Z,99.99
2022-11-26T05:05:46.686Z,99.79
2022-11-26T05:06:18.331Z,99.97
2022-11-26T05:06:49.875Z,99.78
2022-11-26T05:07:21.496Z,99.90
2022-11-26T05:07:53.071Z,99.99
2022-11-26T05:08:24.686Z,99.80
2022-11-26T05:08:56.306Z,99.94
2022-11-26T05:09:27.862Z,99.82
2022-11-26T05:09:59.546Z,99.86
2022-11-26T05:10:31.234Z,99.82
2022-11-26T05:11:03.278Z,99.55
2022-11-26T05:11:34.861Z,99.97
2022-11-26T05:12:06.513Z,99.99
2022-11-26T05:12:38.142Z,99.99
2022-11-26T05:13:09.724Z,99.99
2022-11-26T05:13:41.295Z,99.80
2022-11-26T05:14:12.971Z,99.58
2022-11-26T05:14:44.518Z,99.69
2022-11-26T05:15:16.117Z,99.22
2022-11-26T05:15:48.330Z,99.60
2022-11-26T05:16:19.963Z,99.59
2022-11-26T05:16:51.740Z,99.63
2022-11-26T05:17:23.379Z,99.66
2022-11-26T05:17:55.061Z,99.61
2022-11-26T05:18:26.649Z,99.55
2022-11-26T05:18:58.275Z,99.52
2022-11-26T05:19:29.854Z,99.37
2022-11-26T05:20:01.585Z,99.78
2022-11-26T05:20:33.247Z,99.60
2022-11-26T05:21:06.568Z,99.58
2022-11-26T05:21:38.118Z,99.46
2022-11-26T05:22:09.719Z,99.33
2022-11-26T05:22:42.745Z,99.44
2022-11-26T05:23:14.417Z,99.63
2022-11-26T05:23:46.004Z,99.44
2022-11-26T05:24:17.595Z,99.34
2022-11-26T05:24:49.178Z,99.69
2022-11-26T05:25:20.818Z,99.73
2022-11-26T05:25:52.375Z,99.77
2022-11-26T05:26:24.130Z,99.80
2022-11-26T05:26:57.355Z,99.97
2022-11-26T05:27:29.045Z,99.87
2022-11-26T05:28:00.687Z,99.57
2022-11-26T05:28:32.321Z,99.24
2022-11-26T05:29:03.923Z,99.27
2022-11-26T05:29:35.511Z,99.34
2022-11-26T05:30:08.759Z,99.08
2022-11-26T05:30:40.356Z,99.05
2022-11-26T05:31:12.183Z,99.40
2022-11-26T05:31:43.842Z,99.49
2022-11-26T05:32:16.250Z,99.53
2022-11-26T05:32:47.855Z,99.62
2022-11-26T05:33:19.584Z,99.47
2022-11-26T05:33:51.152Z,99.42
2022-11-26T05:34:22.770Z,99.44
2022-11-26T05:34:58.617Z,99.71
2022-11-26T05:35:31.694Z,99.96
2022-11-26T05:36:03.577Z,99.69
2022-11-26T05:36:35.777Z,99.99
2022-11-26T05:37:07.378Z,99.83
2022-11-26T05:37:39.228Z,99.74
2022-11-26T05:38:10.892Z,99.41
2022-11-26T05:38:42.488Z,99.51
2022-11-26T05:39:14.075Z,99.47
2022-11-26T05:39:45.624Z,99.30
2022-11-26T05:40:17.389Z,99.31
2022-11-26T05:40:49.292Z,99.04
2022-11-26T05:41:20.888Z,99.11
2022-11-26T05:41:52.446Z,98.97
2022-11-26T05:42:24.006Z,99.20
2022-11-26T05:42:55.618Z,98.91
2022-11-26T05:43:27.250Z,99.25
2022-11-26T05:43:58.810Z,99.11
2022-11-26T05:44:30.405Z,99.40
2022-11-26T05:45:01.946Z,99.50
2022-11-26T05:45:33.845Z,99.20
2022-11-26T05:46:07.239Z,99.20
2022-11-26T05:46:41.927Z,99.53
2022-11-26T05:47:13.514Z,99.55
2022-11-26T05:47:45.173Z,99.70
2022-11-26T05:48:16.771Z,99.65
2022-11-26T05:48:48.354Z,99.74
2022-11-26T05:49:19.923Z,99.82
2022-11-26T05:49:51.493Z,99.93
2022-11-26T05:50:23.161Z,99.85
2022-11-26T05:50:58.873Z,99.72
2022-11-26T05:51:30.436Z,99.64
2022-11-26T05:52:02.007Z,99.82
2022-11-26T05:52:33.591Z,99.80
2022-11-26T05:53:05.328Z,99.62
2022-11-26T05:53:37.245Z,99.72
2022-11-26T05:54:13.583Z,99.77
2022-11-26T05:54:45.141Z,99.83
2022-11-26T05:55:17.148Z,99.72
2022-11-26T05:55:48.746Z,99.72
2022-11-26T05:56:20.321Z,99.73
2022-11-26T05:56:55.557Z,99.84
2022-11-26T05:57:31.398Z,99.90
2022-11-26T05:58:03.130Z,99.83
2022-11-26T05:58:34.738Z,99.77
2022-11-26T05:59:06.361Z,99.99
2022-11-26T05:59:37.995Z,99.99
2022-11-26T06:00:10.615Z,99.99
2022-11-26T06:00:42.220Z,99.99
2022-11-26T06:01:13.876Z,99.84
2022-11-26T06:01:45.519Z,99.89
2022-11-26T06:02:17.361Z,99.77
2022-11-26T06:02:49.147Z,99.92
2022-11-26T06:03:20.909Z,99.66
2022-11-26T06:03:52.688Z,99.59
2022-11-26T06:04:24.371Z,99.68
2022-11-26T06:04:55.946Z,99.63
2022-11-26T06:05:27.581Z,99.89
2022-11-26T06:05:59.163Z,99.80
2022-11-26T06:06:30.911Z,99.89
2022-11-26T06:07:02.462Z,99.99
2022-11-26T06:07:34.178Z,99.82
2022-11-26T06:08:05.828Z,99.72
2022-11-26T06:08:37.539Z,99.85
2022-11-26T06:09:09.128Z,99.93
2022-11-26T06:09:41.125Z,99.74
2022-11-26T06:10:13.756Z,99.88
2022-11-26T06:10:45.498Z,99.73
2022-11-26T06:11:17.300Z,99.53
2022-11-26T06:11:50.530Z,99.59
2022-11-26T06:12:22.094Z,99.90
2022-11-26T06:12:53.778Z,99.93
2022-11-26T06:13:25.371Z,99.60
2022-11-26T06:13:56.908Z,99.75
2022-11-26T06:14:28.640Z,99.65
2022-11-26T06:15:00.215Z,99.62
2022-11-26T06:15:32.034Z,99.66
2022-11-26T06:16:03.701Z,99.26
2022-11-26T06:16:35.394Z,99.25
2022-11-26T06:17:07.055Z,99.46
2022-11-26T06:17:38.716Z,99.76
2022-11-26T06:18:10.435Z,99.82
2022-11-26T06:18:42.030Z,99.68
2022-11-26T06:19:13.652Z,99.45
2022-11-26T06:19:45.263Z,99.43
2022-11-26T06:20:16.876Z,99.31
2022-11-26T06:20:48.427Z,99.60
2022-11-26T06:21:20.011Z,99.51
2022-11-26T06:21:51.552Z,99.96
2022-11-26T06:22:23.099Z,99.67
2022-11-26T06:22:54.675Z,99.76
2022-11-26T06:23:26.245Z,99.58
2022-11-26T06:23:59.535Z,99.64
2022-11-26T06:24:31.885Z,99.73
2022-11-26T06:25:03.783Z,99.75
2022-11-26T06:25:35.383Z,99.63
2022-11-26T06:26:09.118Z,99.86
2022-11-26T06:26:40.824Z,99.94
2022-11-26T06:27:12.430Z,99.86
2022-11-26T06:27:43.990Z,99.99
2022-11-26T06:28:15.570Z,99.72
2022-11-26T06:28:47.161Z,99.57
2022-11-26T06:29:21.324Z,99.58
2022-11-26T06:29:56.411Z,99.47
2022-11-26T06:30:28.007Z,99.66
2022-11-26T06:30:59.587Z,99.74
2022-11-26T06:31:31.424Z,99.99
2022-11-26T06:32:03.170Z,99.65
2022-11-26T06:32:34.799Z,99.84
2022-11-26T06:33:06.771Z,99.75
2022-11-26T06:33:38.346Z,99.94
2022-11-26T06:34:10.080Z,99.99
2022-11-26T06:34:43.905Z,99.99
2022-11-26T06:35:16.090Z,99.99
2022-11-26T06:35:47.826Z,99.99
2022-11-26T06:36:19.485Z,99.99
2022-11-26T06:36:51.399Z,99.99
2022-11-26T06:37:24.106Z,99.75
2022-11-26T06:37:55.962Z,99.77
2022-11-26T06:38:28.280Z,99.52
2022-11-26T06:38:59.850Z,99.42
2022-11-26T06:39:31.402Z,99.49
2022-11-26T06:40:03.282Z,99.75
2022-11-26T06:40:35.099Z,99.93
2022-11-26T06:41:08.474Z,99.65
2022-11-26T06:41:40.087Z,99.64
2022-11-26T06:42:11.639Z,99.61
2022-11-26T06:42:48.481Z,99.44
2022-11-26T06:43:20.073Z,99.70
2022-11-26T06:43:51.657Z,99.57
2022-11-26T06:44:23.213Z,99.59
2022-11-26T06:44:59.442Z,99.70
2022-11-26T06:45:31.582Z,99.82
2022-11-26T06:46:05.669Z,99.99
2022-11-26T06:46:37.286Z,99.99
2022-11-26T06:47:12.449Z,99.99
2022-11-26T06:47:46.698Z,99.79
2022-11-26T06:48:18.370Z,99.90
2022-11-26T06:48:49.923Z,99.98
2022-11-26T06:49:21.506Z,99.63
2022-11-26T06:49:53.432Z,99.88
2022-11-26T06:50:25.039Z,99.89
2022-11-26T06:50:56.832Z,99.91
2022-11-26T06:51:28.609Z,99.84
2022-11-26T06:52:00.192Z,99.89
2022-11-26T06:52:31.795Z,99.84
2022-11-26T06:53:03.344Z,99.70
2022-11-26T06:53:34.943Z,99.82
2022-11-26T06:54:06.493Z,99.41
2022-11-26T06:54:38.413Z,99.42
2022-11-26T06:55:10.572Z,99.46
2022-11-26T06:55:42.120Z,99.67
2022-11-26T06:56:18.765Z,99.69
2022-11-26T06:56:51.049Z,99.70
2022-11-26T06:57:22.629Z,99.74
2022-11-26T06:57:54.265Z,99.91
2022-11-26T06:58:25.853Z,99.97
2022-11-26T06:58:57.657Z,99.99
2022-11-26T06:59:29.497Z,99.67
2022-11-26T07:00:01.204Z,99.91
2022-11-26T07:00:32.798Z,99.99
2022-11-26T07:01:11.916Z,99.99
2022-11-26T07:01:43.551Z,99.63
2022-11-26T07:02:15.185Z,99.67
2022-11-26T07:02:46.851Z,99.56
2022-11-26T07:03:23.512Z,99.99
2022-11-26T07:03:55.950Z,99.88
2022-11-26T07:04:27.528Z,99.79
2022-11-26T07:04:59.078Z,99.90
2022-11-26T07:05:30.621Z,99.53
2022-11-26T07:06:02.225Z,99.99
2022-11-26T07:06:35.185Z,99.70
2022-11-26T07:07:06.770Z,99.62
2022-11-26T07:07:39.569Z,99.45
2022-11-26T07:08:11.219Z,99.43
2022-11-26T07:08:42.816Z,99.40
2022-11-26T07:09:14.411Z,99.14
2022-11-26T07:09:45.975Z,99.01
2022-11-26T07:10:17.775Z,98.83
2022-11-26T07:10:49.491Z,98.88
2022-11-26T07:11:21.810Z,99.32
2022-11-26T07:11:53.407Z,99.28
2022-11-26T07:12:24.994Z,99.11
2022-11-26T07:12:56.718Z,99.16
2022-11-26T07:13:28.315Z,99.33
2022-11-26T07:14:01.545Z,99.04